createdAt,value
2022-12-29T00:01:31.199Z,7.59
2022-12-29T00:03:58.237Z,7.63
2022-12-29T00:06:25.036Z,7.62
2022-12-29T00:08:52.635Z,7.61
2022-12-29T00:11:20.719Z,7.61
2022-12-29T00:14:07.470Z,7.59
2022-12-29T00:16:35.342Z,7.53
2022-12-29T00:19:02.111Z,7.48
2022-12-29T00:21:47.762Z,7.40
2022-12-29T00:24:28.404Z,7.32
2022-12-29T00:27:23.044Z,7.22
2022-12-29T00:30:08.595Z,7.12
2022-12-29T00:32:53.665Z,7.03
2022-12-29T00:35:40.728Z,6.90
2022-12-29T00:38:27.432Z,6.76
2022-12-29T00:41:12.919Z,6.61
2022-12-29T00:43:58.155Z,6.47
2022-12-29T00:46:25.340Z,6.34
2022-12-29T00:49:10.390Z,6.23
2022-12-29T00:51:37.616Z,6.12
2022-12-29T00:54:04.348Z,5.98
2022-12-29T00:56:31.141Z,5.87
2022-12-29T00:59:01.256Z,5.76
2022-12-29T01:01:28.691Z,5.68
2022-12-29T01:04:02.023Z,5.61
2022-12-29T01:06:31.919Z,5.49
2022-12-29T01:09:17.121Z,5.44
2022-12-29T01:11:44.234Z,5.40
2022-12-29T01:14:10.999Z,5.34
2022-12-29T01:16:37.807Z,5.23
2022-12-29T01:19:04.870Z,5.13
2022-12-29T01:21:33.832Z,5.10
2022-12-29T01:24:00.544Z,5.06
2022-12-29T01:26:28.135Z,5.02
2022-12-29T01:28:54.861Z,5.00
2022-12-29T01:31:21.845Z,5.00
2022-12-29T01:33:48.649Z,5.01
2022-12-29T01:36:16.193Z,5.05
2022-12-29T01:38:44.377Z,5.11
2022-12-29T01:41:12.702Z,5.17
2022-12-29T01:43:42.476Z,5.21
2022-12-29T01:46:25.184Z,5.25
2022-12-29T01:48:58.993Z,5.25
2022-12-29T01:51:27.351Z,5.25
2022-12-29T01:54:01.286Z,5.28
2022-12-29T01:56:28.416Z,5.30
2022-12-29T01:59:01.397Z,5.32
2022-12-29T02:01:28.542Z,5.29
2022-12-29T02:03:55.408Z,5.31
2022-12-29T02:06:30.411Z,5.30
2022-12-29T02:08:57.823Z,5.30
2022-12-29T02:11:26.232Z,5.28
2022-12-29T02:13:54.036Z,5.29
2022-12-29T02:16:20.756Z,5.28
2022-12-29T02:18:56.881Z,5.26
2022-12-29T02:21:42.044Z,5.22
2022-12-29T02:24:18.696Z,4.78
2022-12-29T02:27:16.157Z,4.67
2022-12-29T02:29:55.655Z,4.62
2022-12-29T02:32:25.502Z,4.57
2022-12-29T02:35:00.144Z,4.56
2022-12-29T02:37:31.535Z,4.56
2022-12-29T02:40:04.442Z,4.55
2022-12-29T02:42:49.888Z,4.56
2022-12-29T02:45:16.617Z,4.53
2022-12-29T02:48:03.920Z,4.50
2022-12-29T02:50:39.241Z,4.47
2022-12-29T02:53:09.002Z,4.44
2022-12-29T02:55:35.709Z,4.39
2022-12-29T02:58:19.690Z,4.35
2022-12-29T03:01:08.902Z,4.35
2022-12-29T03:03:51.881Z,4.38
2022-12-29T03:06:29.119Z,4.44
2022-12-29T03:09:03.875Z,4.49
2022-12-29T03:12:01.869Z,4.56
2022-12-29T03:14:52.210Z,4.63
2022-12-29T03:17:45.942Z,4.69
2022-12-29T03:20:15.885Z,4.75
2022-12-29T03:22:45.550Z,4.76
2022-12-29T03:25:34.918Z,4.75
2022-12-29T03:28:09.426Z,4.72
2022-12-29T03:30:42.930Z,4.68
2022-12-29T03:33:14.977Z,4.61
2022-12-29T03:35:43.534Z,4.56
2022-12-29T03:38:15.237Z,4.56
2022-12-29T03:40:43.791Z,4.57
2022-12-29T03:43:11.455Z,4.62
2022-12-29T03:45:43.737Z,4.69
2022-12-29T03:48:10.577Z,4.77
2022-12-29T03:50:40.842Z,4.84
2022-12-29T03:53:07.951Z,4.89
2022-12-29T03:55:34.698Z,4.93
2022-12-29T03:58:01.598Z,5.01
2022-12-29T04:00:46.732Z,5.04
2022-12-29T04:03:13.561Z,5.06
2022-12-29T04:05:40.345Z,5.33
2022-12-29T04:08:08.392Z,5.14
2022-12-29T04:10:35.273Z,5.08
2022-12-29T04:13:04.838Z,5.06
2022-12-29T04:15:31.801Z,5.03
2022-12-29T04:17:59.823Z,5.05
2022-12-29T04:20:45.724Z,5.03
2022-12-29T04:23:13.025Z,5.05
2022-12-29T04:25:40.327Z,5.09
2022-12-29T04:28:09.943Z,5.13
2022-12-29T04:30:51.505Z,5.15
2022-12-29T04:33:24.406Z,5.17
2022-12-29T04:35:54.093Z,5.21
2022-12-29T04:38:22.350Z,5.22
2022-12-29T04:40:49.685Z,5.27
2022-12-29T04:43:18.256Z,5.30
2022-12-29T04:46:08.209Z,5.38
2022-12-29T04:48:58.224Z,5.45
2022-12-29T04:51:48.236Z,5.51
2022-12-29T04:54:16.381Z,5.55
2022-12-29T04:56:47.343Z,5.59
2022-12-29T04:59:16.249Z,5.63
2022-12-29T05:01:47.811Z,5.66
2022-12-29T05:04:14.633Z,5.70
2022-12-29T05:06:43.064Z,5.71
2022-12-29T05:09:10.157Z,5.73
2022-12-29T05:11:37.075Z,5.73
2022-12-29T05:14:04.013Z,5.72
2022-12-29T05:16:30.981Z,5.69
2022-12-29T05:18:58.169Z,5.66
2022-12-29T05:21:25.578Z,5.61
2022-12-29T05:23:52.289Z,5.58
2022-12-29T05:26:19.329Z,5.62
2022-12-29T05:28:54.841Z,5.65
2022-12-29T05:31:22.868Z,5.69
2022-12-29T05:33:49.635Z,5.76
2022-12-29T05:36:17.984Z,5.82
2022-12-29T05:38:49.460Z,5.87
2022-12-29T05:41:18.067Z,5.92
2022-12-29T05:44:00.437Z,5.98
2022-12-29T05:46:56.967Z,6.03
2022-12-29T05:49:47.144Z,6.09
2022-12-29T05:52:39.927Z,6.15
2022-12-29T05:55:07.388Z,6.17
2022-12-29T05:57:35.756Z,6.20
2022-12-29T06:00:10.708Z,6.26
2022-12-29T06:02:46.096Z,6.30
2022-12-29T06:05:13.704Z,6.38
2022-12-29T06:07:40.540Z,6.41
2022-12-29T06:10:07.749Z,6.44
2022-12-29T06:12:42.738Z,6.48
2022-12-29T06:15:09.757Z,6.53
2022-12-29T06:17:38.666Z,6.57
2022-12-29T06:20:06.196Z,6.61
2022-12-29T06:22:32.955Z,6.65
2022-12-29T06:25:04.569Z,6.68
2022-12-29T06:27:33.473Z,6.73
2022-12-29T06:30:01.094Z,6.78
2022-12-29T06:32:28.557Z,6.83
2022-12-29T06:35:00.591Z,6.87
2022-12-29T06:37:28.057Z,6.92
2022-12-29T06:39:55.241Z,6.95
2022-12-29T06:42:26.373Z,6.98
2022-12-29T06:45:10.639Z,7.02
2022-12-29T06:47:37.429Z,7.06
2022-12-29T06:50:04.395Z,7.10
2022-12-29T06:52:31.270Z,7.14
2022-12-29T06:54:58.095Z,7.17
2022-12-29T06:57:27.647Z,7.22
2022-12-29T06:59:56.914Z,7.25
2022-12-29T07:02:26.403Z,7.30
2022-12-29T07:04:53.687Z,7.35
2022-12-29T07:07:21.988Z,7.39
2022-12-29T07:09:48.771Z,7.44
2022-12-29T07:12:15.972Z,7.46
2022-12-29T07:14:43.664Z,7.48
2022-12-29T07:17:10.921Z,7.51
2022-12-29T07:19:37.698Z,7.52
2022-12-29T07:22:05.234Z,7.56
2022-12-29T07:24:31.935Z,7.58
2022-12-29T07:26:58.900Z,7.62
2022-12-29T07:29:25.629Z,7.65
2022-12-29T07:31:52.474Z,7.68
2022-12-29T07:34:19.203Z,7.73
2022-12-29T07:36:45.992Z,7.77
2022-12-29T07:39:12.839Z,7.80
2022-12-29T07:41:39.640Z,7.84
2022-12-29T07:44:11.304Z,7.86
2022-12-29T07:46:57.764Z,7.91
2022-12-29T07:49:26.508Z,7.94
2022-12-29T07:51:53.196Z,7.98
2022-12-29T07:54:19.992Z,8.02
2022-12-29T07:56:47.042Z,8.04
2022-12-29T07:59:13.783Z,8.08
2022-12-29T08:01:40.625Z,8.10
2022-12-29T08:04:07.609Z,8.11
2022-12-29T08:06:34.493Z,8.07
2022-12-29T08:09:11.045Z,8.09
2022-12-29T08:11:39.939Z,8.07
2022-12-29T08:14:06.665Z,8.11
2022-12-29T08:16:34.536Z,8.11
2022-12-29T08:19:01.417Z,8.14
2022-12-29T08:21:28.719Z,8.16
2022-12-29T08:23:55.528Z,8.19
2022-12-29T08:26:22.895Z,8.22
2022-12-29T08:28:53.102Z,8.25
2022-12-29T08:31:19.940Z,8.27
2022-12-29T08:33:46.617Z,8.29
2022-12-29T08:36:13.398Z,8.34
2022-12-29T08:38:40.060Z,8.38
2022-12-29T08:41:07.967Z,8.44
2022-12-29T08:43:34.767Z,8.47
2022-12-29T08:46:02.435Z,8.52
2022-12-29T08:48:29.159Z,8.57
2022-12-29T08:50:56.001Z,8.61
2022-12-29T08:53:22.770Z,8.65
2022-12-29T08:56:02.132Z,8.69
2022-12-29T08:58:34.866Z,8.73
2022-12-29T09:01:01.743Z,8.76
2022-12-29T09:04:12.257Z,8.79
2022-12-29T09:06:17.911Z,8.88
2022-12-29T09:08:45.299Z,8.90
2022-12-29T09:11:13.863Z,8.94
2022-12-29T09:13:40.656Z,8.98
2022-12-29T09:16:07.710Z,9.06
2022-12-29T09:18:38.680Z,9.20
2022-12-29T09:21:06.558Z,9.37
2022-12-29T09:23:34.406Z,9.56
2022-12-29T09:26:02.208Z,9.77
2022-12-29T09:28:30.171Z,9.96
2022-12-29T09:30:58.493Z,10.13
2022-12-29T09:33:25.594Z,10.31
2022-12-29T09:35:56.366Z,10.48
2022-12-29T09:38:23.872Z,10.59
2022-12-29T09:40:52.535Z,10.67
2022-12-29T09:43:45.014Z,10.69
2022-12-29T09:46:28.574Z,10.62
2022-12-29T09:49:07.646Z,10.57
2022-12-29T09:51:36.287Z,10.59
2022-12-29T09:54:20.790Z,10.54
2022-12-29T09:56:48.886Z,10.51
2022-12-29T09:59:19.087Z,10.47
2022-12-29T10:02:08.244Z,10.38
2022-12-29T10:04:36.625Z,10.33
2022-12-29T10:07:29.936Z,10.28
2022-12-29T10:10:06.975Z,10.21
2022-12-29T10:12:52.205Z,10.14
2022-12-29T10:15:37.602Z,10.12
2022-12-29T10:18:13.977Z,10.11
2022-12-29T10:20:46.888Z,10.05
2022-12-29T10:23:49.199Z,9.99
2022-12-29T10:26:21.241Z,9.91
2022-12-29T10:28:50.947Z,9.86
2022-12-29T10:31:22.133Z,9.78
2022-12-29T10:33:53.305Z,9.75
2022-12-29T10:36:25.244Z,9.68
2022-12-29T10:39:00.173Z,9.63
2022-12-29T10:41:30.149Z,9.57
2022-12-29T10:43:58.117Z,9.48
2022-12-29T10:46:29.216Z,9.38
2022-12-29T10:48:56.175Z,9.33
2022-12-29T10:51:23.289Z,9.30
2022-12-29T10:53:53.165Z,9.28
2022-12-29T10:56:26.774Z,9.27
2022-12-29T10:58:55.738Z,9.28
2022-12-29T11:01:24.250Z,9.24
2022-12-29T11:04:01.119Z,9.23
2022-12-29T11:06:30.256Z,9.26
2022-12-29T11:09:02.670Z,9.33
2022-12-29T11:11:36.652Z,9.43
2022-12-29T11:14:26.389Z,9.52
2022-12-29T11:17:01.423Z,9.93
2022-12-29T11:19:29.323Z,11.32
2022-12-29T11:21:56.162Z,11.39
2022-12-29T11:24:27.243Z,11.18
2022-12-29T11:26:58.476Z,11.03
2022-12-29T11:29:26.238Z,10.91
2022-12-29T11:31:55.355Z,10.82
2022-12-29T11:34:32.646Z,10.75
2022-12-29T11:37:11.217Z,10.70
2022-12-29T11:39:40.456Z,10.71
2022-12-29T11:42:12.155Z,10.78
2022-12-29T11:44:43.286Z,10.72
2022-12-29T11:47:13.507Z,10.66
2022-12-29T11:49:40.360Z,10.64
2022-12-29T11:52:07.996Z,10.63
2022-12-29T11:54:36.499Z,10.59
2022-12-29T11:57:14.924Z,10.54
2022-12-29T11:59:43.502Z,10.52
2022-12-29T12:02:16.358Z,10.52
2022-12-29T12:04:43.412Z,10.53
2022-12-29T12:07:13.725Z,10.52
2022-12-29T12:09:50.283Z,10.51
2022-12-29T12:12:24.036Z,10.50
2022-12-29T12:14:55.565Z,10.53
2022-12-29T12:18:12.771Z,10.63
2022-12-29T12:20:49.290Z,10.77
2022-12-29T12:23:28.312Z,10.78
2022-12-29T12:26:27.575Z,10.82
2022-12-29T12:28:57.302Z,10.83
2022-12-29T12:31:42.919Z,10.81
2022-12-29T12:34:15.633Z,10.81
2022-12-29T12:37:11.890Z,10.81
2022-12-29T12:39:41.446Z,10.77
2022-12-29T12:42:26.548Z,10.69
2022-12-29T12:45:06.571Z,10.68
2022-12-29T12:47:33.351Z,10.68
2022-12-29T12:50:00.053Z,10.71
2022-12-29T12:52:35.693Z,10.75
2022-12-29T12:55:10.151Z,10.79
2022-12-29T12:57:37.804Z,10.82
2022-12-29T13:00:19.152Z,10.89
2022-12-29T13:02:58.201Z,11.00
2022-12-29T13:05:45.445Z,11.16
2022-12-29T13:08:36.381Z,11.35
2022-12-29T13:11:05.947Z,11.50
2022-12-29T13:13:46.430Z,11.60
2022-12-29T13:16:30.385Z,11.73
2022-12-29T13:19:05.597Z,11.85
2022-12-29T13:21:32.406Z,11.91
2022-12-29T13:23:59.139Z,11.93
2022-12-29T13:26:33.749Z,11.90
2022-12-29T13:29:13.184Z,11.88
2022-12-29T13:31:42.723Z,11.81
2022-12-29T13:34:28.275Z,11.73
2022-12-29T13:37:00.788Z,11.64
2022-12-29T13:39:32.289Z,11.57
2022-12-29T13:41:59.860Z,11.52
2022-12-29T13:44:34.666Z,11.47
2022-12-29T13:47:14.757Z,11.42
2022-12-29T13:49:42.281Z,11.38
2022-12-29T13:52:23.935Z,11.38
2022-12-29T13:54:54.704Z,11.35
2022-12-29T13:57:27.399Z,11.31
2022-12-29T14:00:23.972Z,11.29
2022-12-29T14:03:05.898Z,11.24
2022-12-29T14:05:33.577Z,11.21
2022-12-29T14:08:01.999Z,11.19
2022-12-29T14:10:31.031Z,11.15
2022-12-29T14:13:03.272Z,11.13
2022-12-29T14:15:30.064Z,11.11
2022-12-29T14:18:17.111Z,11.09
2022-12-29T14:20:55.109Z,11.08
2022-12-29T14:23:30.879Z,11.07
2022-12-29T14:26:07.623Z,11.07
2022-12-29T14:28:39.137Z,11.04
2022-12-29T14:31:06.752Z,10.87
2022-12-29T14:33:34.947Z,11.05
2022-12-29T14:36:34.962Z,11.03
2022-12-29T14:39:02.658Z,11.00
2022-12-29T14:41:34.136Z,10.94
2022-12-29T14:44:02.756Z,10.91
2022-12-29T14:46:47.043Z,10.87
2022-12-29T14:49:21.653Z,10.85
2022-12-29T14:51:49.921Z,10.81
2022-12-29T14:54:34.970Z,10.78
2022-12-29T14:57:03.329Z,10.77
2022-12-29T14:59:31.140Z,10.76
2022-12-29T15:01:58.129Z,10.75
2022-12-29T15:04:31.830Z,10.72
2022-12-29T15:07:00.550Z,10.70
2022-12-29T15:09:37.574Z,10.69
2022-12-29T15:12:17.271Z,10.64
2022-12-29T15:14:51.868Z,10.63
2022-12-29T15:17:26.431Z,10.62
2022-12-29T15:19:53.724Z,10.59
2022-12-29T15:22:20.874Z,10.57
2022-12-29T15:24:48.336Z,10.55
2022-12-29T15:27:16.612Z,10.54
2022-12-29T15:29:45.521Z,10.55
2022-12-29T15:32:25.731Z,10.53
2022-12-29T15:34:53.785Z,10.51
2022-12-29T15:37:22.891Z,10.49
2022-12-29T15:39:50.262Z,10.48
2022-12-29T15:42:26.719Z,10.46
2022-12-29T15:44:57.915Z,10.46
2022-12-29T15:47:31.382Z,10.46
2022-12-29T15:50:02.843Z,10.45
2022-12-29T15:52:30.612Z,10.45
2022-12-29T15:54:59.288Z,10.47
2022-12-29T15:57:27.668Z,10.48
2022-12-29T15:59:57.716Z,10.49
2022-12-29T16:02:25.087Z,10.50
2022-12-29T16:07:42.130Z,10.49
2022-12-29T16:10:38.338Z,10.50
2022-12-29T16:13:25.337Z,10.51
2022-12-29T16:15:56.057Z,10.49
2022-12-29T16:18:28.088Z,10.47
2022-12-29T16:20:57.552Z,10.47
2022-12-29T16:23:26.068Z,10.48
2022-12-29T16:25:55.711Z,10.47
2022-12-29T16:28:36.182Z,10.47
2022-12-29T16:31:04.558Z,10.46
2022-12-29T16:33:38.954Z,10.44
2022-12-29T16:36:24.766Z,10.43
2022-12-29T16:38:51.936Z,10.40
2022-12-29T16:41:31.308Z,10.38
2022-12-29T16:44:17.009Z,10.38
2022-12-29T16:47:04.266Z,10.36
2022-12-29T16:49:32.652Z,10.36
2022-12-29T16:51:59.748Z,10.35
2022-12-29T16:54:37.819Z,10.34
2022-12-29T16:57:05.041Z,10.34
2022-12-29T16:59:44.069Z,10.34
2022-12-29T17:02:19.905Z,10.33
2022-12-29T17:04:49.695Z,10.33
2022-12-29T17:07:17.723Z,10.34
2022-12-29T17:09:44.528Z,10.34
2022-12-29T17:12:14.558Z,10.34
2022-12-29T17:14:42.392Z,10.34
2022-12-29T17:17:12.129Z,10.34
2022-12-29T17:19:39.588Z,10.37
2022-12-29T17:22:20.508Z,10.37
2022-12-29T17:24:48.062Z,10.40
2022-12-29T17:27:21.714Z,10.40
2022-12-29T17:29:48.677Z,10.43
2022-12-29T17:32:15.487Z,10.43
2022-12-29T17:34:42.244Z,10.45
2022-12-29T17:37:41.124Z,10.46
2022-12-29T17:40:09.109Z,10.45
2022-12-29T17:42:37.981Z,10.46
2022-12-29T17:45:05.054Z,10.47
2022-12-29T17:47:31.839Z,10.46
2022-12-29T17:49:58.542Z,10.48
2022-12-29T17:52:25.340Z,10.47
2022-12-29T17:54:55.488Z,10.48
2022-12-29T17:57:22.243Z,10.48
2022-12-29T17:59:49.335Z,10.49
2022-12-29T18:02:23.855Z,10.50
2022-12-29T18:04:50.807Z,10.51
2022-12-29T18:07:17.585Z,10.53
2022-12-29T18:09:44.379Z,10.55
2022-12-29T18:12:25.949Z,10.55
2022-12-29T18:14:52.671Z,10.55
2022-12-29T18:17:19.361Z,10.54
2022-12-29T18:19:46.189Z,10.54
2022-12-29T18:22:12.870Z,10.55
2022-12-29T18:24:40.476Z,10.55
2022-12-29T18:27:17.819Z,10.56
2022-12-29T18:29:44.601Z,10.56
2022-12-29T18:32:14.835Z,10.56
2022-12-29T18:34:42.323Z,10.57
2022-12-29T18:37:09.802Z,10.56
2022-12-29T18:39:37.336Z,10.56
2022-12-29T18:42:04.659Z,10.54
2022-12-29T18:44:31.411Z,10.53
2022-12-29T18:46:58.264Z,10.50
2022-12-29T18:49:25.638Z,10.53
2022-12-29T18:51:52.364Z,10.53
2022-12-29T18:54:24.417Z,10.54
2022-12-29T18:56:51.158Z,10.54
2022-12-29T18:59:17.816Z,10.54
2022-12-29T19:01:44.673Z,10.53
2022-12-29T19:04:14.764Z,10.55
2022-12-29T19:06:42.188Z,10.55
2022-12-29T19:09:09.181Z,10.55
2022-12-29T19:11:36.925Z,10.56
2022-12-29T19:14:03.634Z,10.57
2022-12-29T19:16:30.929Z,10.59
2022-12-29T19:19:09.004Z,10.59
2022-12-29T19:21:37.225Z,10.60
2022-12-29T19:24:04.117Z,10.59
2022-12-29T19:26:32.148Z,10.57
2022-12-29T19:28:59.804Z,10.57
2022-12-29T19:31:26.810Z,10.57
2022-12-29T19:33:53.757Z,10.58
2022-12-29T19:36:21.443Z,10.57
2022-12-29T19:38:48.203Z,10.55
2022-12-29T19:41:16.111Z,10.55
2022-12-29T19:43:42.937Z,10.54
2022-12-29T19:46:11.199Z,10.54
2022-12-29T19:48:37.982Z,10.54
2022-12-29T19:51:06.497Z,10.53
2022-12-29T19:53:33.355Z,10.53
2022-12-29T19:56:02.396Z,10.53
2022-12-29T19:58:29.064Z,10.53
2022-12-29T20:01:01.078Z,10.55
2022-12-29T20:03:27.965Z,10.56
2022-12-29T20:05:54.735Z,10.57
2022-12-29T20:08:21.719Z,10.57
2022-12-29T20:10:58.720Z,10.58
2022-12-29T20:13:26.477Z,10.57
2022-12-29T20:15:57.232Z,10.59
2022-12-29T20:18:28.874Z,10.60
2022-12-29T20:21:06.237Z,10.60
2022-12-29T20:23:33.483Z,10.61
2022-12-29T20:26:00.867Z,10.62
2022-12-29T20:28:28.210Z,10.63
2022-12-29T20:30:59.961Z,10.61
2022-12-29T20:33:28.679Z,10.60
2022-12-29T20:35:55.480Z,10.60
2022-12-29T20:38:22.692Z,10.61
2022-12-29T20:40:49.562Z,10.61
2022-12-29T20:43:16.687Z,10.63
2022-12-29T20:45:43.511Z,10.64
2022-12-29T20:48:10.347Z,10.64
2022-12-29T20:50:37.207Z,10.64
2022-12-29T20:53:04.965Z,10.64
2022-12-29T20:55:31.819Z,10.63
2022-12-29T20:58:23.701Z,10.62
2022-12-29T21:00:46.119Z,10.61
2022-12-29T21:03:12.978Z,10.61
2022-12-29T21:05:40.007Z,10.62
2022-12-29T21:08:06.757Z,10.61
2022-12-29T21:10:34.081Z,10.60
2022-12-29T21:13:01.737Z,10.57
2022-12-29T21:15:30.078Z,10.55
2022-12-29T21:17:56.816Z,10.53
2022-12-29T21:20:30.354Z,10.53
2022-12-29T21:23:00.757Z,10.51
2022-12-29T21:25:36.867Z,10.50
2022-12-29T21:28:07.458Z,10.48
2022-12-29T21:30:34.540Z,10.48
2022-12-29T21:33:01.636Z,10.46
2022-12-29T21:35:28.607Z,10.46
2022-12-29T21:37:55.307Z,10.43
2022-12-29T21:40:24.995Z,10.40
2022-12-29T21:42:51.977Z,10.39
2022-12-29T21:45:27.831Z,10.36
2022-12-29T21:48:17.780Z,10.36
2022-12-29T21:51:03.966Z,10.31
2022-12-29T21:53:38.410Z,10.29
2022-12-29T21:56:09.560Z,10.27
2022-12-29T21:58:55.517Z,10.25
2022-12-29T22:01:41.460Z,10.21
2022-12-29T22:04:27.160Z,10.20
2022-12-29T22:07:12.346Z,10.20
2022-12-29T22:09:58.719Z,10.19
2022-12-29T22:12:44.662Z,10.16
2022-12-29T22:15:11.737Z,10.14
2022-12-29T22:17:41.216Z,10.13
2022-12-29T22:20:10.556Z,10.12
2022-12-29T22:22:37.313Z,10.09
2022-12-29T22:25:04.438Z,10.09
2022-12-29T22:27:31.339Z,10.06
2022-12-29T22:29:58.096Z,10.05
2022-12-29T22:32:24.763Z,10.03
2022-12-29T22:34:51.508Z,10.00
2022-12-29T22:37:18.466Z,9.94
2022-12-29T22:39:45.148Z,9.89
2022-12-29T22:42:11.935Z,9.84
2022-12-29T22:44:38.687Z,9.81
2022-12-29T22:47:05.405Z,9.78
2022-12-29T22:49:32.194Z,9.74
2022-12-29T22:51:58.954Z,9.72
2022-12-29T22:54:26.590Z,9.68
2022-12-29T22:56:53.310Z,9.66
2022-12-29T22:59:20.124Z,9.63
2022-12-29T23:01:47.123Z,9.61
2022-12-29T23:04:59.251Z,9.60
2022-12-29T23:07:01.816Z,9.59
2022-12-29T23:09:28.556Z,9.59
2022-12-29T23:11:56.220Z,9.58
2022-12-29T23:14:22.955Z,9.56
2022-12-29T23:16:49.780Z,9.54
2022-12-29T23:19:16.594Z,9.56
2022-12-29T23:21:44.227Z,9.54
2022-12-29T23:24:12.820Z,9.55
2022-12-29T23:26:41.596Z,9.54
2022-12-29T23:29:09.474Z,9.51
2022-12-29T23:31:36.823Z,9.51
2022-12-29T23:34:04.439Z,9.51
2022-12-29T23:36:32.366Z,9.52
2022-12-29T23:38:59.393Z,9.51
2022-12-29T23:41:26.612Z,9.51
2022-12-29T23:43:53.572Z,9.48
2022-12-29T23:46:22.572Z,9.48
2022-12-29T23:48:49.753Z,9.46
2022-12-29T23:51:16.827Z,9.44
2022-12-29T23:53:44.116Z,9.39
2022-12-29T23:56:13.601Z,9.37
2022-12-29T23:58:40.345Z,9.35
